Time;durP1;ratioP1;P1;durP2;ratioP2;P2;SDS_P1;SDS_P2;PMS_P1;PMS_P2;Temp;Humidity;BMP_temperature;BMP_pressure;BME280_temperature;BME280_humidity;BME280_pressure;Samples;Min_cycle;Max_cycle;Signal;HPM_P1;HPM_P2
2022/05/25 00:01:04;;;;;;;11.27;3.25;;;10.70;99.90;;;;;;5033210;28;20037;-66
2022/05/25 00:03:32;;;;;;;15.45;2.95;;;10.80;99.90;;;;;;5033566;28;20025;-66
2022/05/25 00:05:58;;;;;;;16.73;3.65;;;10.80;99.90;;;;;;5033733;28;20041;-67
2022/05/25 00:08:24;;;;;;;21.52;3.28;;;10.90;99.90;;;;;;5033495;28;20052;-67
2022/05/25 00:10:50;;;;;;;19.17;4.47;;;10.90;99.90;;;;;;5098899;22;20041;-70
2022/05/25 00:13:16;;;;;;;12.45;3.25;;;10.90;99.90;;;;;;5053407;28;20025;-70
2022/05/25 00:15:42;;;;;;;21.70;4.35;;;10.90;99.90;;;;;;5053115;28;20017;-70
2022/05/25 00:18:07;;;;;;;9.25;3.13;;;10.80;99.90;;;;;;5053125;28;20362;-70
2022/05/25 00:20:35;;;;;;;17.77;4.47;;;10.90;99.90;;;;;;5053075;28;20028;-70
2022/05/25 00:23:01;;;;;;;18.63;4.38;;;10.90;99.90;;;;;;5053326;28;20100;-70
2022/05/25 00:25:30;;;;;;;28.15;5.00;;;11.00;99.90;;;;;;5053218;28;20118;-70
2022/05/25 00:28:00;;;;;;;9.80;2.55;;;11.00;99.90;;;;;;5053116;28;20179;-70
2022/05/25 00:30:28;;;;;;;15.13;3.47;;;11.00;99.90;;;;;;5052896;28;20029;-70
2022/05/25 00:32:54;;;;;;;20.50;3.65;;;10.90;99.90;;;;;;5053226;28;20047;-70
2022/05/25 00:35:22;;;;;;;20.80;3.33;;;11.00;99.90;;;;;;5053506;28;20032;-70
2022/05/25 00:37:48;;;;;;;18.27;2.85;;;11.10;99.90;;;;;;5053168;28;20104;-70
2022/05/25 00:40:27;;;;;;;22.33;3.78;;;11.00;99.90;;;;;;5052856;28;20083;-70
2022/05/25 00:42:53;;;;;;;10.00;3.17;;;10.90;99.90;;;;;;5053087;28;20029;-70
2022/05/25 00:45:19;;;;;;;22.83;3.60;;;10.90;99.90;;;;;;5052678;28;20036;-69
2022/05/25 00:47:51;;;;;;;16.20;3.88;;;10.90;99.90;;;;;;5053397;28;20059;-70
2022/05/25 00:50:19;;;;;;;19.27;3.33;;;10.90;99.90;;;;;;5054281;28;20095;-70
2022/05/25 00:52:47;;;;;;;11.65;3.67;;;10.80;99.90;;;;;;5055936;28;20021;-70
2022/05/25 00:55:19;;;;;;;16.52;3.92;;;10.70;99.90;;;;;;5056437;28;20083;-70
2022/05/25 00:57:48;;;;;;;26.33;3.97;;;10.70;99.90;;;;;;5056782;28;20117;-70
2022/05/25 01:00:15;;;;;;;36.63;5.80;;;10.80;99.90;;;;;;5056303;28;20025;-70
2022/05/25 01:02:44;;;;;;;14.65;3.40;;;10.80;99.90;;;;;;5056631;28;20091;-70
2022/05/25 01:05:12;;;;;;;16.60;3.60;;;10.80;99.90;;;;;;5056220;28;20025;-70
2022/05/25 01:08:19;;;;;;;15.52;3.03;;;10.80;99.90;;;;;;5056346;28;20113;-70
2022/05/25 01:11:32;;;;;;;15.05;2.83;;;10.90;99.90;;;;;;5056050;28;20091;-70
2022/05/25 01:14:21;;;;;;;9.77;2.97;;;10.80;99.90;;;;;;5034778;28;20472;-70
2022/05/25 01:17:07;;;;;;;16.67;3.60;;;10.80;99.90;;;;;;5056030;28;20072;-69
2022/05/25 01:19:58;;;;;;;11.93;3.85;;;10.80;99.90;;;;;;5056330;28;20040;-69
2022/05/25 01:22:50;;;;;;;13.45;3.53;;;10.80;99.90;;;;;;5056606;28;20025;-69
2022/05/25 01:25:41;;;;;;;20.30;3.88;;;10.90;99.90;;;;;;5056181;28;20052;-70
2022/05/25 01:28:24;;;;;;;13.40;3.33;;;10.90;99.90;;;;;;5055848;28;20104;-70
2022/05/25 01:30:53;;;;;;;18.55;3.30;;;10.90;99.90;;;;;;5055891;28;20052;-70
2022/05/25 01:33:42;;;;;;;20.98;4.00;;;10.90;99.90;;;;;;5055822;28;20021;-70
2022/05/25 01:36:20;;;;;;;28.23;3.88;;;11.00;99.90;;;;;;5055765;28;20426;-70
2022/05/25 01:39:01;;;;;;;15.57;3.97;;;10.90;99.90;;;;;;5055657;28;20481;-70
2022/05/25 01:41:39;;;;;;;21.38;4.13;;;11.00;99.90;;;;;;5055515;28;20021;-70
2022/05/25 01:44:13;;;;;;;17.73;3.55;;;11.00;99.90;;;;;;5055814;28;20071;-70
2022/05/25 01:46:51;;;;;;;26.95;4.85;;;11.00;99.90;;;;;;5055572;28;20021;-70
2022/05/25 01:49:21;;;;;;;15.38;3.83;;;11.00;99.90;;;;;;5055604;28;20021;-70
2022/05/25 01:51:52;;;;;;;19.42;3.28;;;10.90;99.90;;;;;;5056710;28;20037;-70
2022/05/25 01:54:22;;;;;;;17.73;3.65;;;10.90;99.90;;;;;;5056223;28;20035;-70
2022/05/25 01:56:53;;;;;;;20.13;3.13;;;10.80;99.90;;;;;;5055482;28;20021;-70
2022/05/25 01:59:19;;;;;;;15.02;3.50;;;10.70;99.90;;;;;;5055653;28;20025;-70
2022/05/25 02:04:40;;;;;;;14.88;2.85;;;10.60;99.90;;;;;;5055044;28;20036;-70
2022/05/25 02:07:17;;;;;;;16.17;2.67;;;10.50;99.90;;;;;;5055677;28;20124;-70
2022/05/25 02:09:50;;;;;;;17.10;4.55;;;10.40;99.90;;;;;;5054835;28;20428;-70
2022/05/25 02:12:33;;;;;;;17.08;3.47;;;10.20;99.90;;;;;;5055375;28;20464;-70
2022/05/25 02:15:28;;;;;;;6.85;3.45;;;10.20;99.90;;;;;;5055369;28;20021;-70
2022/05/25 02:18:31;;;;;;;10.02;3.17;;;10.20;99.90;;;;;;5055128;28;20526;-70
2022/05/25 02:21:12;;;;;;;11.98;3.03;;;10.20;99.90;;;;;;5055682;28;20059;-70
2022/05/25 02:23:44;;;;;;;12.65;3.63;;;10.30;99.90;;;;;;5054638;28;20029;-70
2022/05/25 02:26:15;;;;;;;10.02;3.25;;;10.20;99.90;;;;;;5055059;28;20064;-70
2022/05/25 02:28:51;;;;;;;9.63;3.40;;;10.20;99.90;;;;;;5055348;28;20017;-70
2022/05/25 02:31:24;;;;;;;13.07;3.35;;;10.20;99.90;;;;;;5054786;28;20491;-70
2022/05/25 02:33:52;;;;;;;9.13;3.15;;;10.20;99.90;;;;;;5036754;28;20480;-70
2022/05/25 02:36:19;;;;;;;8.65;3.03;;;10.20;99.90;;;;;;5054877;28;20028;-70
2022/05/25 02:38:45;;;;;;;15.85;4.32;;;10.30;99.90;;;;;;5054504;28;20059;-70
2022/05/25 02:41:35;;;;;;;11.77;3.80;;;10.30;99.90;;;;;;5054773;28;20464;-70
2022/05/25 02:44:02;;;;;;;11.00;2.97;;;10.40;99.90;;;;;;5053776;28;20068;-70
2022/05/25 02:46:29;;;;;;;8.05;2.70;;;10.40;99.90;;;;;;5054322;28;20021;-70
2022/05/25 02:48:54;;;;;;;11.32;3.70;;;10.40;99.90;;;;;;5054522;28;20405;-70
2022/05/25 02:51:20;;;;;;;12.93;2.78;;;10.30;99.90;;;;;;5054537;28;20025;-70
2022/05/25 02:53:46;;;;;;;17.02;3.53;;;10.30;99.90;;;;;;5054202;28;20029;-70
2022/05/25 02:56:12;;;;;;;11.25;3.03;;;10.30;99.90;;;;;;5054355;28;20025;-70
2022/05/25 02:58:37;;;;;;;23.15;3.53;;;10.20;99.90;;;;;;5054149;28;20040;-70
2022/05/25 03:01:04;;;;;;;12.75;3.05;;;10.20;99.90;;;;;;5053968;28;20474;-70
2022/05/25 03:03:33;;;;;;;16.17;3.20;;;10.20;99.90;;;;;;5054263;28;20032;-70
2022/05/25 03:05:59;;;;;;;15.02;3.28;;;10.20;99.90;;;;;;5054193;28;20029;-70
2022/05/25 03:08:26;;;;;;;9.52;2.88;;;10.20;99.90;;;;;;5054335;28;20146;-70
2022/05/25 03:10:52;;;;;;;12.25;3.03;;;10.10;99.90;;;;;;5053816;28;20056;-70
2022/05/25 03:13:17;;;;;;;12.93;2.70;;;10.20;99.90;;;;;;5053104;28;20389;-70
2022/05/25 03:15:43;;;;;;;9.40;2.53;;;10.20;99.90;;;;;;5053780;28;20102;-70
2022/05/25 03:18:08;;;;;;;8.20;2.95;;;10.20;99.90;;;;;;5054089;28;20492;-70
2022/05/25 03:20:34;;;;;;;11.73;2.95;;;10.20;99.90;;;;;;5053691;28;20051;-70
2022/05/25 03:22:59;;;;;;;10.50;2.47;;;10.20;99.90;;;;;;5054165;28;20017;-69
2022/05/25 03:25:25;;;;;;;8.57;2.35;;;10.20;99.90;;;;;;5053661;28;20033;-69
2022/05/25 03:27:50;;;;;;;9.77;2.70;;;10.20;99.90;;;;;;5053567;28;20469;-69
2022/05/25 03:30:20;;;;;;;7.50;3.03;;;10.10;99.90;;;;;;5053504;28;20025;-69
2022/05/25 03:32:46;;;;;;;15.55;3.13;;;10.10;99.90;;;;;;5053620;28;20013;-70
2022/05/25 03:35:12;;;;;;;9.68;2.55;;;9.90;99.90;;;;;;5053818;28;20052;-70
2022/05/25 03:37:39;;;;;;;14.48;3.35;;;9.90;99.90;;;;;;5053480;28;20037;-70
2022/05/25 03:40:08;;;;;;;5.18;2.45;;;9.80;99.90;;;;;;5053524;28;20025;-70
2022/05/25 03:42:35;;;;;;;9.32;2.40;;;9.80;99.90;;;;;;5054184;28;20055;-70
2022/05/25 03:45:04;;;;;;;7.00;2.95;;;9.70;99.90;;;;;;5053602;28;20036;-70
2022/05/25 03:47:30;;;;;;;12.27;2.40;;;9.60;99.90;;;;;;5053618;28;20385;-70
2022/05/25 03:49:56;;;;;;;8.23;2.33;;;9.60;99.90;;;;;;5053321;28;20017;-70
2022/05/25 03:52:23;;;;;;;12.20;2.85;;;9.50;99.90;;;;;;5053289;28;20491;-70
2022/05/25 03:54:49;;;;;;;11.13;2.78;;;9.50;99.90;;;;;;5053798;28;20460;-70
2022/05/25 03:57:15;;;;;;;7.78;2.30;;;9.40;99.90;;;;;;5053274;28;20033;-70
2022/05/25 03:59:40;;;;;;;21.33;3.08;;;9.50;99.90;;;;;;5053277;28;20051;-70
2022/05/25 04:02:06;;;;;;;5.40;2.50;;;9.50;99.90;;;;;;5035505;28;20060;-70
2022/05/25 04:04:31;;;;;;;5.43;2.22;;;9.50;99.90;;;;;;5053150;28;20039;-70
2022/05/25 04:06:57;;;;;;;20.00;3.05;;;9.40;99.90;;;;;;5053278;28;20049;-70
2022/05/25 04:09:23;;;;;;;12.40;3.13;;;9.40;99.90;;;;;;5053346;28;20029;-71
2022/05/25 04:11:49;;;;;;;15.05;2.83;;;9.40;99.90;;;;;;5053128;28;20025;-71
2022/05/25 04:14:15;;;;;;;10.90;2.75;;;9.40;99.90;;;;;;5054276;28;20433;-70
2022/05/25 04:16:42;;;;;;;15.88;3.22;;;9.30;99.90;;;;;;5053832;28;20025;-70
2022/05/25 04:19:08;;;;;;;9.57;2.40;;;9.30;99.90;;;;;;5053407;28;20025;-70
2022/05/25 04:21:34;;;;;;;13.90;3.50;;;9.30;99.90;;;;;;5052983;28;20025;-70
2022/05/25 04:24:00;;;;;;;9.75;2.65;;;9.30;99.90;;;;;;5052892;28;20025;-70
2022/05/25 04:26:28;;;;;;;10.25;2.97;;;9.30;99.90;;;;;;5056584;28;20114;-70
2022/05/25 04:28:54;;;;;;;8.65;2.80;;;9.40;99.90;;;;;;5057194;28;20025;-70
2022/05/25 04:31:19;;;;;;;7.68;2.70;;;9.40;99.90;;;;;;5056768;28;20384;-70
2022/05/25 04:33:45;;;;;;;11.93;3.25;;;9.40;99.90;;;;;;5057175;28;20033;-70
2022/05/25 04:36:10;;;;;;;9.90;3.65;;;9.50;99.90;;;;;;5057079;28;20029;-70
2022/05/25 04:38:36;;;;;;;8.35;2.80;;;9.60;99.90;;;;;;5056867;28;20033;-70
2022/05/25 04:41:02;;;;;;;13.32;3.33;;;9.70;99.90;;;;;;5057190;28;20393;-70
2022/05/25 04:43:28;;;;;;;10.93;3.53;;;9.80;99.90;;;;;;5056646;28;20079;-69
2022/05/25 04:45:54;;;;;;;8.65;3.80;;;9.90;99.90;;;;;;5056781;28;20025;-70
2022/05/25 04:48:23;;;;;;;8.68;4.18;;;10.00;99.90;;;;;;5056819;28;20022;-70
2022/05/25 04:50:49;;;;;;;9.68;3.70;;;10.00;99.90;;;;;;5056758;28;20021;-70
2022/05/25 04:53:19;;;;;;;15.15;3.55;;;10.10;99.90;;;;;;5056804;28;20107;-70
2022/05/25 04:58:32;;;;;;;12.27;3.20;;;10.30;99.90;;;;;;5056709;28;20031;-70
2022/05/25 05:00:57;;;;;;;28.08;5.13;;;10.40;99.90;;;;;;5056416;28;20021;-70
2022/05/25 05:03:24;;;;;;;12.85;3.83;;;10.50;99.90;;;;;;5056237;28;20495;-69
2022/05/25 05:05:51;;;;;;;21.92;4.68;;;10.50;99.90;;;;;;5056202;28;20036;-70
2022/05/25 05:08:17;;;;;;;10.10;2.92;;;10.70;99.90;;;;;;5056705;28;20389;-69
2022/05/25 05:10:43;;;;;;;11.60;3.22;;;10.80;99.90;;;;;;5055942;28;20036;-70
2022/05/25 05:13:09;;;;;;;10.18;3.33;;;10.80;99.90;;;;;;5056392;28;20036;-70
2022/05/25 05:15:45;;;;;;;13.70;3.15;;;11.00;99.90;;;;;;5056175;28;20025;-70
2022/05/25 05:18:12;;;;;;;8.55;2.58;;;11.10;99.90;;;;;;5056179;28;20132;-70
2022/05/25 05:20:39;;;;;;;4.55;2.50;;;11.20;99.90;;;;;;5055863;28;20443;-70
2022/05/25 05:23:05;;;;;;;25.52;3.03;;;11.30;99.90;;;;;;5055937;28;20029;-70
2022/05/25 05:25:32;;;;;;;10.55;2.47;;;11.50;99.90;;;;;;5055791;28;20067;-70
2022/05/25 05:28:11;;;;;;;10.05;2.47;;;11.60;99.90;;;;;;5055789;28;20032;-70
2022/05/25 05:30:50;;;;;;;10.02;2.35;;;11.70;99.90;;;;;;5055874;28;20032;-70
2022/05/25 05:33:16;;;;;;;5.05;1.98;;;11.80;99.90;;;;;;5056049;28;20025;-69
2022/05/25 05:35:44;;;;;;;7.88;2.50;;;12.00;99.90;;;;;;5055936;28;20107;-69
2022/05/25 05:38:11;;;;;;;10.68;3.10;;;12.20;99.90;;;;;;5054809;28;20025;-69
2022/05/25 05:40:37;;;;;;;4.35;2.38;;;12.30;99.90;;;;;;5055678;28;20044;-69
2022/05/25 05:43:04;;;;;;;6.78;2.65;;;12.50;99.90;;;;;;5055492;28;20044;-69
2022/05/25 05:45:33;;;;;;;11.63;2.80;;;12.50;99.90;;;;;;5055718;28;20025;-69
2022/05/25 05:48:18;;;;;;;8.98;2.65;;;12.70;99.90;;;;;;5055773;28;20074;-69
2022/05/25 05:50:45;;;;;;;9.63;2.90;;;12.80;99.90;;;;;;5055459;28;20017;-69
2022/05/25 05:53:12;;;;;;;9.68;2.55;;;13.00;99.90;;;;;;5055393;28;20071;-69
2022/05/25 05:55:40;;;;;;;9.23;2.90;;;13.00;99.90;;;;;;5055329;28;20025;-69
2022/05/25 05:58:06;;;;;;;8.40;2.95;;;13.20;99.90;;;;;;5055279;28;20036;-69
2022/05/25 06:00:32;;;;;;;9.45;2.75;;;13.20;99.90;;;;;;5055284;28;20488;-69
2022/05/25 06:02:58;;;;;;;12.52;2.85;;;13.40;99.90;;;;;;5055340;28;20098;-69
2022/05/25 06:05:24;;;;;;;8.02;2.95;;;13.40;99.90;;;;;;5055231;28;20400;-69
2022/05/25 06:07:49;;;;;;;8.40;2.70;;;13.50;99.90;;;;;;5055008;28;20021;-69
2022/05/25 06:10:15;;;;;;;11.70;2.90;;;13.60;99.90;;;;;;5055211;28;20119;-69
2022/05/25 06:12:40;;;;;;;15.55;3.25;;;13.90;99.90;;;;;;5055004;28;20071;-69
2022/05/25 06:20:36;;;;;;;9.77;3.17;;;14.70;99.90;;;;;;5054950;28;20040;-69
2022/05/25 06:23:02;;;;;;;8.88;3.03;;;14.50;99.90;;;;;;5054783;28;20037;-69
2022/05/25 06:25:28;;;;;;;6.35;3.20;;;14.20;99.90;;;;;;5054748;28;20040;-69
2022/05/25 06:27:54;;;;;;;8.68;3.92;;;14.00;99.90;;;;;;5054981;28;20021;-69
2022/05/25 06:30:19;;;;;;;11.45;3.78;;;13.90;99.90;;;;;;5054579;28;20033;-69
2022/05/25 06:32:45;;;;;;;8.60;4.20;;;13.80;99.90;;;;;;5054535;28;20028;-69
2022/05/25 06:35:11;;;;;;;7.40;4.70;;;14.10;99.90;;;;;;5054555;28;20029;-69
2022/05/25 06:37:36;;;;;;;10.48;3.90;;;14.30;99.90;;;;;;5055282;28;20396;-69
2022/05/25 06:40:03;;;;;;;9.50;4.80;;;14.40;99.90;;;;;;5055730;28;20374;-69
2022/05/25 06:42:28;;;;;;;15.88;4.45;;;14.30;99.90;;;;;;5054847;28;20025;-69
2022/05/25 06:44:54;;;;;;;12.85;3.83;;;14.10;99.90;;;;;;5054551;28;20032;-69
2022/05/25 06:47:20;;;;;;;11.38;3.42;;;13.90;99.90;;;;;;5054228;28;20029;-69
2022/05/25 06:49:46;;;;;;;6.57;3.58;;;13.90;99.90;;;;;;5054665;28;20049;-69
2022/05/25 06:52:13;;;;;;;5.82;3.83;;;13.90;99.90;;;;;;5054299;28;20066;-69
2022/05/25 06:54:39;;;;;;;19.88;4.70;;;14.00;99.90;;;;;;5054191;28;20104;-69
2022/05/25 06:57:05;;;;;;;9.48;3.78;;;14.30;99.90;;;;;;5054352;28;20029;-69
2022/05/25 06:59:32;;;;;;;7.65;2.75;;;14.50;99.90;;;;;;5053983;28;20099;-69
2022/05/25 07:01:58;;;;;;;11.38;3.00;;;14.90;99.90;;;;;;5054116;28;20151;-69
2022/05/25 07:04:23;;;;;;;10.13;3.17;;;15.20;99.90;;;;;;5053970;28;20052;-69
2022/05/25 07:06:49;;;;;;;9.50;2.70;;;15.50;99.90;;;;;;5054122;28;20049;-69
2022/05/25 07:09:15;;;;;;;5.93;2.83;;;15.50;99.90;;;;;;5053924;28;20086;-69
2022/05/25 07:11:42;;;;;;;9.75;3.28;;;15.40;99.90;;;;;;5053699;28;20025;-69
2022/05/25 07:14:07;;;;;;;9.48;3.78;;;15.50;99.90;;;;;;5054056;28;20075;-69
2022/05/25 07:16:33;;;;;;;6.47;3.17;;;15.60;99.90;;;;;;5053778;28;20052;-69
2022/05/25 07:18:59;;;;;;;3.60;2.70;;;15.50;99.90;;;;;;5053913;28;20066;-69
2022/05/25 07:21:27;;;;;;;9.40;4.25;;;15.40;99.90;;;;;;5053642;28;20032;-69
2022/05/25 07:23:55;;;;;;;9.70;3.92;;;15.20;99.90;;;;;;5053877;28;20108;-69
2022/05/25 07:26:22;;;;;;;9.68;4.03;;;15.20;99.90;;;;;;5053825;28;20079;-69
2022/05/25 07:28:48;;;;;;;8.15;3.30;;;15.40;99.90;;;;;;5053585;28;20025;-69
2022/05/25 07:31:26;;;;;;;9.43;3.53;;;15.50;99.90;;;;;;5053520;28;20377;-69
2022/05/25 07:34:18;;;;;;;10.77;3.92;;;15.60;99.90;;;;;;5053455;28;20027;-69
2022/05/25 07:36:50;;;;;;;9.18;5.28;;;15.60;99.90;;;;;;5052741;28;20067;-69
2022/05/25 07:39:17;;;;;;;11.02;4.15;;;15.70;99.90;;;;;;5053783;28;20035;-69
2022/05/25 07:41:48;;;;;;;11.60;4.53;;;15.80;99.90;;;;;;5035541;28;20056;-69
2022/05/25 07:44:23;;;;;;;8.65;4.55;;;15.80;99.90;;;;;;5053497;28;20390;-69
2022/05/25 07:46:49;;;;;;;13.15;6.15;;;15.60;99.90;;;;;;5053974;28;20112;-69
2022/05/25 07:49:16;;;;;;;10.88;4.43;;;15.90;99.90;;;;;;5053621;28;20027;-69
2022/05/25 07:51:41;;;;;;;6.80;4.30;;;15.80;99.90;;;;;;5053267;28;20496;-69
2022/05/25 07:54:07;;;;;;;8.93;5.57;;;15.60;99.90;;;;;;5053548;28;20037;-69
2022/05/25 07:56:36;;;;;;;13.88;4.78;;;15.40;99.90;;;;;;5053718;28;20032;-69
2022/05/25 07:59:04;;;;;;;12.77;5.45;;;15.30;99.90;;;;;;5053033;28;20033;-69
2022/05/25 08:07:08;;;;;;;17.02;5.43;;;15.40;99.90;;;;;;5053478;28;20515;-69
2022/05/25 08:09:34;;;;;;;18.20;6.10;;;15.60;99.90;;;;;;5053276;28;20025;-69
2022/05/25 08:12:01;;;;;;;12.27;5.72;;;16.00;99.90;;;;;;5053084;28;20488;-69
2022/05/25 08:14:28;;;;;;;10.85;3.80;;;16.00;99.90;;;;;;5053400;28;20088;-69
2022/05/25 08:16:54;;;;;;;10.13;5.03;;;16.00;99.90;;;;;;5053061;28;20020;-69
2022/05/25 08:19:20;;;;;;;14.77;6.90;;;15.90;99.90;;;;;;5053058;28;20078;-69
2022/05/25 08:21:47;;;;;;;13.85;4.55;;;15.80;99.90;;;;;;5052970;28;20465;-69
2022/05/25 08:24:13;;;;;;;9.93;4.53;;;15.70;99.90;;;;;;5052947;28;20025;-69
2022/05/25 08:26:39;;;;;;;18.48;7.40;;;15.60;99.90;;;;;;5052945;28;20025;-69
2022/05/25 08:29:05;;;;;;;15.45;6.55;;;15.90;99.90;;;;;;5053023;28;20078;-69
2022/05/25 08:31:30;;;;;;;14.55;6.00;;;16.30;99.90;;;;;;5053204;28;20025;-69
2022/05/25 08:33:56;;;;;;;11.43;4.90;;;16.50;99.90;;;;;;5053086;28;20041;-69
2022/05/25 08:36:21;;;;;;;8.43;4.15;;;16.60;99.90;;;;;;5035118;28;20025;-69
2022/05/25 08:38:47;;;;;;;14.02;6.30;;;16.90;99.90;;;;;;5052831;28;20534;-69
2022/05/25 08:41:13;;;;;;;11.80;5.20;;;17.00;99.90;;;;;;5052779;28;20079;-69
2022/05/25 08:43:44;;;;;;;12.98;6.32;;;17.10;99.90;;;;;;5052708;28;20056;-69
2022/05/25 08:46:14;;;;;;;14.00;5.18;;;16.90;99.90;;;;;;5052807;28;20024;-69
2022/05/25 08:48:41;;;;;;;8.57;4.30;;;16.60;99.90;;;;;;5052700;28;20017;-69
2022/05/25 08:51:12;;;;;;;12.15;4.95;;;16.20;99.90;;;;;;5053076;28;20033;-69
2022/05/25 08:53:38;;;;;;;11.95;5.22;;;16.20;99.90;;;;;;5053022;28;20021;-68
2022/05/25 08:56:34;;;;;;;15.52;4.45;;;16.50;99.90;;;;;;5052920;28;20021;-69
2022/05/25 08:59:21;;;;;;;11.55;4.32;;;16.90;99.90;;;;;;5053006;28;20028;-69
2022/05/25 09:02:00;;;;;;;8.50;4.60;;;17.00;99.90;;;;;;5053148;28;20021;-69
2022/05/25 09:04:40;;;;;;;10.48;5.57;;;17.20;99.90;;;;;;5052889;28;20021;-69
2022/05/25 09:07:26;;;;;;;15.52;5.03;;;17.30;99.90;;;;;;5053187;28;20052;-69
2022/05/25 09:09:52;;;;;;;10.85;4.55;;;17.30;99.90;;;;;;5052515;28;20067;-69
2022/05/25 09:12:22;;;;;;;6.25;2.70;;;17.50;99.90;;;;;;5054140;28;20036;-69
2022/05/25 09:15:00;;;;;;;8.30;3.13;;;17.60;99.90;;;;;;5056409;28;20059;-69
2022/05/25 09:17:32;;;;;;;14.88;3.78;;;17.70;99.90;;;;;;5056583;28;20483;-69
2022/05/25 09:19:59;;;;;;;9.65;3.45;;;17.20;99.90;;;;;;5056237;28;20029;-69
2022/05/25 09:22:26;;;;;;;5.70;3.53;;;17.20;99.90;;;;;;5056486;28;20029;-69
2022/05/25 09:24:57;;;;;;;11.63;3.75;;;17.50;99.90;;;;;;5056204;28;20088;-69
2022/05/25 09:27:52;;;;;;;10.35;4.00;;;17.70;99.90;;;;;;5056164;28;20028;-69
2022/05/25 09:30:18;;;;;;;6.80;3.22;;;17.80;99.90;;;;;;5050863;28;20060;-69
2022/05/25 09:32:56;;;;;;;6.72;2.95;;;17.70;99.90;;;;;;5055813;28;20040;-69
2022/05/25 09:35:31;;;;;;;8.15;3.25;;;17.60;99.90;;;;;;5056105;28;20497;-70
2022/05/25 09:38:05;;;;;;;4.72;2.10;;;17.60;99.90;;;;;;5055633;28;20040;-70
2022/05/25 09:40:43;;;;;;;;;;;17.60;99.90;;;;;;5056238;28;20037;-70
2022/05/25 09:43:19;;;;;;;5.95;2.88;;;17.70;99.90;;;;;;5055637;28;19904;-70
2022/05/25 09:45:50;;;;;;;7.97;3.72;;;17.70;99.90;;;;;;5055432;28;20053;-70
2022/05/25 09:48:31;;;;;;;7.25;3.55;;;17.80;99.90;;;;;;5055825;28;20025;-70
2022/05/25 09:50:59;;;;;;;19.88;5.30;;;17.60;99.90;;;;;;5055535;28;20418;-70
2022/05/25 09:53:32;;;;;;;9.35;4.53;;;17.50;99.90;;;;;;5055363;28;20025;-70
2022/05/25 09:56:06;;;;;;;13.43;4.80;;;17.50;99.90;;;;;;5055672;28;20440;-70
2022/05/25 09:58:37;;;;;;;19.17;5.68;;;17.30;99.90;;;;;;5055591;28;20386;-70
2022/05/25 10:01:07;;;;;;;11.38;4.55;;;17.40;99.90;;;;;;5055323;28;20021;-70
2022/05/25 10:03:37;;;;;;;10.85;5.20;;;17.70;99.90;;;;;;5054903;28;20429;-70
2022/05/25 10:06:23;;;;;;;15.18;6.07;;;17.70;99.90;;;;;;5055093;28;20037;-70
2022/05/25 10:09:09;;;;;;;10.68;6.22;;;17.90;99.90;;;;;;5055238;28;20020;-70
2022/05/25 10:11:44;;;;;;;7.78;3.63;;;18.60;99.90;;;;;;5036546;28;20041;-70
2022/05/25 10:14:21;;;;;;;12.07;4.47;;;18.50;99.90;;;;;;5054553;28;20111;-70
2022/05/25 10:16:46;;;;;;;12.18;4.80;;;18.20;99.90;;;;;;5054901;28;20076;-70
2022/05/25 10:19:14;;;;;;;14.75;4.90;;;17.60;99.90;;;;;;5054557;28;20025;-70
2022/05/25 10:21:47;;;;;;;10.20;4.15;;;17.50;99.90;;;;;;5054461;28;20049;-70
2022/05/25 10:24:34;;;;;;;16.50;4.38;;;17.70;99.90;;;;;;5054037;28;20056;-70
2022/05/25 10:27:03;;;;;;;14.90;4.82;;;17.70;99.90;;;;;;5053748;28;20056;-70
2022/05/25 10:38:27;;;;;;;10.80;3.92;;;18.40;99.90;;;;;;5045015;28;20580;-70
2022/05/25 10:40:57;;;;;;;11.65;5.68;;;18.40;99.90;;;;;;5040377;28;20036;-70
2022/05/25 10:43:31;;;;;;;10.38;4.78;;;18.10;99.90;;;;;;5040329;28;20029;-71
2022/05/25 10:46:00;;;;;;;8.52;4.30;;;18.10;99.90;;;;;;5043595;28;20493;-70
2022/05/25 10:48:58;;;;;;;7.50;4.35;;;18.00;99.90;;;;;;5042783;28;20528;-71
2022/05/25 10:51:38;;;;;;;11.82;5.90;;;17.60;99.90;;;;;;5041428;28;20065;-70
2022/05/25 10:54:47;;;;;;;10.60;6.80;;;17.80;99.90;;;;;;5043353;28;20497;-71
2022/05/25 10:57:24;;;;;;;13.75;8.02;;;17.90;99.90;;;;;;5044390;28;20056;-71
2022/05/25 11:00:08;;;;;;;12.60;8.38;;;17.80;99.90;;;;;;5047318;28;20029;-70
2022/05/25 11:03:02;;;;;;;15.98;8.60;;;17.70;99.90;;;;;;5053719;28;20033;-70
2022/05/25 11:05:52;;;;;;;18.48;8.57;;;17.50;99.90;;;;;;5053479;28;20078;-70
2022/05/25 11:08:32;;;;;;;16.73;7.18;;;17.40;99.90;;;;;;5053721;28;20044;-70
2022/05/25 11:11:31;;;;;;;11.73;7.55;;;17.10;99.90;;;;;;5053232;28;20107;-70
2022/05/25 11:14:23;;;;;;;13.13;7.22;;;17.00;99.90;;;;;;5053564;28;20035;-70
2022/05/25 11:17:20;;;;;;;22.20;9.45;;;17.30;99.90;;;;;;5053909;28;20044;-70
2022/05/25 11:19:57;;;;;;;11.32;6.50;;;17.50;99.90;;;;;;4998808;28;20041;-70
2022/05/25 11:22:53;;;;;;;12.32;6.47;;;17.70;99.90;;;;;;5053867;28;20397;-70
2022/05/25 11:25:31;;;;;;;13.73;5.60;;;17.70;99.90;;;;;;5053766;28;20025;-70
2022/05/25 11:28:26;;;;;;;13.60;5.38;;;18.00;99.90;;;;;;5053573;28;20036;-71
2022/05/25 11:31:25;;;;;;;10.20;5.57;;;17.70;99.90;;;;;;5053318;28;20020;-70
2022/05/25 11:34:06;;;;;;;14.40;4.78;;;17.70;99.90;;;;;;5052984;28;20098;-71
2022/05/25 11:36:52;;;;;;;10.98;4.38;;;18.40;99.90;;;;;;5053000;28;20075;-70
2022/05/25 11:39:18;;;;;;;10.23;4.25;;;18.50;99.90;;;;;;5054170;28;20024;-71
2022/05/25 11:42:17;;;;;;;8.20;4.05;;;18.50;99.90;;;;;;5054003;28;20025;-71
2022/05/25 11:44:57;;;;;;;13.75;4.28;;;18.40;99.90;;;;;;5053305;28;20361;-71
2022/05/25 11:47:47;;;;;;;11.90;3.85;;;18.50;99.90;;;;;;5053470;28;20017;-72
2022/05/25 11:50:27;;;;;;;11.88;3.22;;;18.60;99.90;;;;;;5053132;28;20021;-70
2022/05/25 11:53:19;;;;;;;6.13;2.33;;;18.40;99.90;;;;;;5053209;28;20021;-70
2022/05/25 11:56:27;;;;;;;3.83;2.03;;;18.30;99.90;;;;;;5052938;28;20087;-70
2022/05/25 11:59:13;;;;;;;4.40;1.90;;;18.50;99.90;;;;;;5053428;28;20021;-70
2022/05/25 12:01:49;;;;;;;8.82;1.92;;;18.60;99.90;;;;;;5053105;28;20017;-70
2022/05/25 12:04:36;;;;;;;4.47;2.13;;;18.60;99.90;;;;;;5052884;28;20025;-70
2022/05/25 12:07:18;;;;;;;4.07;1.77;;;18.90;99.90;;;;;;5053105;28;20093;-70
2022/05/25 12:09:44;;;;;;;8.88;2.25;;;18.80;99.90;;;;;;5053043;28;20021;-70
2022/05/25 12:12:28;;;;;;;11.02;2.72;;;18.70;99.90;;;;;;5075430;23;20045;-65
2022/05/25 12:15:21;;;;;;;3.72;2.25;;;19.00;99.90;;;;;;5053060;28;20025;-68
2022/05/25 12:18:05;;;;;;;9.80;2.95;;;19.00;99.90;;;;;;5052770;28;20059;-68
2022/05/25 12:20:33;;;;;;;;;;;19.40;99.90;;;;;;5053186;28;20477;-68
2022/05/25 12:23:01;;;;;;;;;;;19.70;99.90;;;;;;5053145;28;20284;-68
2022/05/25 12:25:27;;;;;;;;;;;19.40;99.90;;;;;;5053014;28;19913;-68
2022/05/25 12:27:53;;;;;;;;;;;19.70;99.90;;;;;;5053325;28;19954;-68
2022/05/25 12:30:22;;;;;;;;;;;19.70;99.90;;;;;;5053006;28;20287;-68
2022/05/25 12:32:48;;;;;;;;;;;19.80;99.90;;;;;;5053025;28;19947;-68
2022/05/25 12:35:15;;;;;;;;;;;19.80;99.90;;;;;;5053478;28;19905;-68
2022/05/25 12:37:42;;;;;;;;;;;20.20;99.90;;;;;;5052960;28;19915;-68
2022/05/25 12:40:12;;;;;;;;;;;20.70;99.90;;;;;;5052819;28;19904;-69
2022/05/25 12:42:39;;;;;;;;;;;20.30;99.90;;;;;;5052960;28;19905;-68
2022/05/25 12:50:42;;;;;;;;;;;20.70;99.90;;;;;;5056549;28;19957;-68
2022/05/25 12:53:20;;;;;;;;;;;21.10;99.90;;;;;;5056757;28;19908;-68
2022/05/25 12:55:53;;;;;;;;;;;21.70;99.90;;;;;;5056974;28;19911;-68
2022/05/25 12:58:31;;;;;;;;;;;21.90;99.90;;;;;;5056604;28;19955;-68
2022/05/25 13:01:23;;;;;;;;;;;20.90;99.90;;;;;;5056346;28;19905;-68
2022/05/25 13:03:48;;;;;;;;;;;20.30;99.90;;;;;;5054198;28;20007;-68
2022/05/25 13:06:17;;;;;;;;;;;19.80;99.90;;;;;;5056354;28;20008;-68
2022/05/25 13:08:45;;;;;;;;;;;19.80;99.90;;;;;;5056501;28;19971;-68
2022/05/25 13:11:28;;;;;;;;;;;20.30;99.90;;;;;;5056106;28;19923;-68
2022/05/25 13:13:54;;;;;;;;;;;21.10;99.90;;;;;;5056496;28;19905;-69
2022/05/25 13:16:38;;;;;;;;;;;21.40;99.90;;;;;;5056166;28;19904;-69
2022/05/25 13:19:14;;;;;;;;;;;21.40;99.90;;;;;;5056193;28;19912;-68
2022/05/25 13:21:41;;;;;;;;;;;20.30;99.90;;;;;;5056516;28;19904;-68
2022/05/25 13:24:25;;;;;;;;;;;20.00;99.90;;;;;;5056062;28;19908;-68
2022/05/25 13:27:12;;;;;;;;;;;19.50;99.90;;;;;;5056143;28;19971;-68
2022/05/25 13:29:48;;;;;;;;;;;18.60;99.90;;;;;;5056228;28;19908;-68
2022/05/25 13:32:22;;;;;;;;;;;18.00;99.90;;;;;;5055948;28;19999;-68
2022/05/25 13:34:47;;;;;;;;;;;17.70;99.90;;;;;;5056087;28;19951;-67
2022/05/25 13:37:14;;;;;;;;;;;17.60;99.90;;;;;;5055753;28;19948;-67
2022/05/25 13:39:40;;;;;;;;;;;17.60;99.90;;;;;;5055736;28;19905;-67
2022/05/25 13:42:08;;;;;;;;;;;17.20;99.90;;;;;;5055580;28;19911;-68
2022/05/25 13:44:39;;;;;;;;;;;17.10;99.90;;;;;;5055688;28;19915;-68
2022/05/25 13:47:05;;;;;;;;;;;16.80;99.90;;;;;;5055567;28;19904;-68